sensor_id;sensor_type;location;lat;lon;timestamp;temperature;humidity
13982;DHT22;7065;50.880;5.502;2022-08-19T00:00:24;17.60;99.90
13982;DHT22;7065;50.880;5.502;2022-08-19T00:02:49;17.60;99.90
13982;DHT22;7065;50.880;5.502;2022-08-19T00:05:16;17.60;99.90
13982;DHT22;7065;50.880;5.502;2022-08-19T00:07:43;17.50;99.90
13982;DHT22;7065;50.880;5.502;2022-08-19T00:10:10;17.50;99.90
13982;DHT22;7065;50.880;5.502;2022-08-19T00:12:37;17.40;99.90
13982;DHT22;7065;50.880;5.502;2022-08-19T00:15:05;17.40;99.90
13982;DHT22;7065;50.880;5.502;2022-08-19T00:17:31;17.40;99.90
13982;DHT22;7065;50.880;5.502;2022-08-19T00:19:57;17.40;99.90
13982;DHT22;7065;50.880;5.502;2022-08-19T00:22:23;17.40;99.90
13982;DHT22;7065;50.880;5.502;2022-08-19T00:24:48;17.40;99.90
13982;DHT22;7065;50.880;5.502;2022-08-19T00:27:14;17.40;99.90
13982;DHT22;7065;50.880;5.502;2022-08-19T00:29:40;17.40;99.90
13982;DHT22;7065;50.880;5.502;2022-08-19T00:32:06;17.30;99.90
13982;DHT22;7065;50.880;5.502;2022-08-19T00:34:32;17.30;99.90
13982;DHT22;7065;50.880;5.502;2022-08-19T00:36:58;17.20;99.90
13982;DHT22;7065;50.880;5.502;2022-08-19T00:39:24;17.20;99.90
13982;DHT22;7065;50.880;5.502;2022-08-19T00:41:50;17.10;99.90
13982;DHT22;7065;50.880;5.502;2022-08-19T00:46:47;16.90;99.90
13982;DHT22;7065;50.880;5.502;2022-08-19T00:49:23;16.90;99.90
13982;DHT22;7065;50.880;5.502;2022-08-19T00:51:55;16.90;99.90
13982;DHT22;7065;50.880;5.502;2022-08-19T00:54:22;16.90;99.90
13982;DHT22;7065;50.880;5.502;2022-08-19T00:56:48;16.80;99.90
13982;DHT22;7065;50.880;5.502;2022-08-19T00:59:16;16.80;99.90
13982;DHT22;7065;50.880;5.502;2022-08-19T01:01:43;16.80;99.90
13982;DHT22;7065;50.880;5.502;2022-08-19T01:04:10;16.80;99.90
13982;DHT22;7065;50.880;5.502;2022-08-19T01:06:36;16.80;99.90
13982;DHT22;7065;50.880;5.502;2022-08-19T01:09:03;16.70;99.90
13982;DHT22;7065;50.880;5.502;2022-08-19T01:11:35;16.60;99.90
13982;DHT22;7065;50.880;5.502;2022-08-19T01:14:01;16.60;99.90
13982;DHT22;7065;50.880;5.502;2022-08-19T01:16:28;16.50;99.90
13982;DHT22;7065;50.880;5.502;2022-08-19T01:18:55;16.50;99.90
13982;DHT22;7065;50.880;5.502;2022-08-19T01:21:37;16.40;99.90
13982;DHT22;7065;50.880;5.502;2022-08-19T01:24:04;16.40;99.90
13982;DHT22;7065;50.880;5.502;2022-08-19T01:26:30;16.50;99.90
13982;DHT22;7065;50.880;5.502;2022-08-19T01:28:58;16.50;99.90
13982;DHT22;7065;50.880;5.502;2022-08-19T01:31:28;16.50;99.90
13982;DHT22;7065;50.880;5.502;2022-08-19T01:33:58;16.50;99.90
13982;DHT22;7065;50.880;5.502;2022-08-19T01:38:56;16.40;99.90
13982;DHT22;7065;50.880;5.502;2022-08-19T01:41:22;16.40;99.90
13982;DHT22;7065;50.880;5.502;2022-08-19T01:43:50;16.30;99.90
13982;DHT22;7065;50.880;5.502;2022-08-19T01:46:16;16.40;99.90
13982;DHT22;7065;50.880;5.502;2022-08-19T01:48:43;16.30;99.90
13982;DHT22;7065;50.880;5.502;2022-08-19T01:51:10;16.40;99.90
13982;DHT22;7065;50.880;5.502;2022-08-19T01:53:37;16.40;99.90
13982;DHT22;7065;50.880;5.502;2022-08-19T01:56:04;16.40;99.90
13982;DHT22;7065;50.880;5.502;2022-08-19T01:58:40;16.40;99.90
13982;DHT22;7065;50.880;5.502;2022-08-19T02:01:07;16.30;99.90
13982;DHT22;7065;50.880;5.502;2022-08-19T02:03:33;16.30;99.90
13982;DHT22;7065;50.880;5.502;2022-08-19T02:06:02;16.20;99.90
13982;DHT22;7065;50.880;5.502;2022-08-19T02:08:29;16.20;99.90
13982;DHT22;7065;50.880;5.502;2022-08-19T02:10:55;16.20;99.90
13982;DHT22;7065;50.880;5.502;2022-08-19T02:13:25;16.20;99.90
13982;DHT22;7065;50.880;5.502;2022-08-19T02:15:51;16.20;99.90
13982;DHT22;7065;50.880;5.502;2022-08-19T02:18:17;16.20;99.90
13982;DHT22;7065;50.880;5.502;2022-08-19T02:20:44;16.30;99.90
13982;DHT22;7065;50.880;5.502;2022-08-19T02:23:11;16.30;99.90
13982;DHT22;7065;50.880;5.502;2022-08-19T02:25:38;16.40;99.90
13982;DHT22;7065;50.880;5.502;2022-08-19T02:28:04;16.40;99.90
13982;DHT22;7065;50.880;5.502;2022-08-19T02:30:30;16.40;99.90
13982;DHT22;7065;50.880;5.502;2022-08-19T02:32:56;16.40;99.90
13982;DHT22;7065;50.880;5.502;2022-08-19T02:35:23;16.40;99.90
13982;DHT22;7065;50.880;5.502;2022-08-19T02:37:49;16.40;99.90
13982;DHT22;7065;50.880;5.502;2022-08-19T02:40:33;16.40;99.90
13982;DHT22;7065;50.880;5.502;2022-08-19T02:43:00;16.40;99.90
13982;DHT22;7065;50.880;5.502;2022-08-19T02:45:31;16.40;99.90
13982;DHT22;7065;50.880;5.502;2022-08-19T02:47:56;16.40;99.90
13982;DHT22;7065;50.880;5.502;2022-08-19T02:50:22;16.40;99.90
13982;DHT22;7065;50.880;5.502;2022-08-19T02:52:48;16.40;99.90
13982;DHT22;7065;50.880;5.502;2022-08-19T02:55:14;16.40;99.90
13982;DHT22;7065;50.880;5.502;2022-08-19T02:57:40;16.40;99.90
13982;DHT22;7065;50.880;5.502;2022-08-19T03:00:08;16.40;99.90
13982;DHT22;7065;50.880;5.502;2022-08-19T03:02:37;16.40;99.90
13982;DHT22;7065;50.880;5.502;2022-08-19T03:05:04;16.40;99.90
13982;DHT22;7065;50.880;5.502;2022-08-19T03:07:31;16.40;99.90
13982;DHT22;7065;50.880;5.502;2022-08-19T03:09:56;16.40;99.90
13982;DHT22;7065;50.880;5.502;2022-08-19T03:12:22;16.40;99.90
13982;DHT22;7065;50.880;5.502;2022-08-19T03:14:48;16.40;99.90
13982;DHT22;7065;50.880;5.502;2022-08-19T03:17:13;16.30;99.90
13982;DHT22;7065;50.880;5.502;2022-08-19T03:19:40;16.30;99.90
13982;DHT22;7065;50.880;5.502;2022-08-19T03:22:05;16.30;99.90
13982;DHT22;7065;50.880;5.502;2022-08-19T03:24:31;16.40;99.90
13982;DHT22;7065;50.880;5.502;2022-08-19T03:26:58;16.30;99.90
13982;DHT22;7065;50.880;5.502;2022-08-19T03:29:28;16.20;99.90
13982;DHT22;7065;50.880;5.502;2022-08-19T03:31:54;16.20;99.90
13982;DHT22;7065;50.880;5.502;2022-08-19T03:34:23;16.10;99.90
13982;DHT22;7065;50.880;5.502;2022-08-19T03:36:52;16.10;99.90
13982;DHT22;7065;50.880;5.502;2022-08-19T03:39:19;16.00;99.90
13982;DHT22;7065;50.880;5.502;2022-08-19T03:41:47;15.90;99.90
13982;DHT22;7065;50.880;5.502;2022-08-19T03:44:17;15.90;99.90
13982;DHT22;7065;50.880;5.502;2022-08-19T03:46:49;15.80;99.90
13982;DHT22;7065;50.880;5.502;2022-08-19T03:49:16;15.80;99.90
13982;DHT22;7065;50.880;5.502;2022-08-19T03:51:43;15.70;99.90
13982;DHT22;7065;50.880;5.502;2022-08-19T03:54:11;15.70;99.90
13982;DHT22;7065;50.880;5.502;2022-08-19T03:56:39;15.70;99.90
13982;DHT22;7065;50.880;5.502;2022-08-19T03:59:07;15.70;99.90
13982;DHT22;7065;50.880;5.502;2022-08-19T04:01:34;15.60;99.90
13982;DHT22;7065;50.880;5.502;2022-08-19T04:04:00;15.60;99.90
13982;DHT22;7065;50.880;5.502;2022-08-19T04:06:30;15.60;99.90
13982;DHT22;7065;50.880;5.502;2022-08-19T04:08:58;15.60;99.90
13982;DHT22;7065;50.880;5.502;2022-08-19T04:11:30;15.60;99.90
13982;DHT22;7065;50.880;5.502;2022-08-19T04:13:57;15.60;99.90
13982;DHT22;7065;50.880;5.502;2022-08-19T04:16:28;15.60;99.90
13982;DHT22;7065;50.880;5.502;2022-08-19T04:19:00;15.50;99.90
13982;DHT22;7065;50.880;5.502;2022-08-19T04:21:27;15.50;99.90
13982;DHT22;7065;50.880;5.502;2022-08-19T04:23:54;15.50;99.90
13982;DHT22;7065;50.880;5.502;2022-08-19T04:26:30;15.50;99.90
13982;DHT22;7065;50.880;5.502;2022-08-19T04:29:01;15.40;99.90
13982;DHT22;7065;50.880;5.502;2022-08-19T04:31:29;15.40;99.90
13982;DHT22;7065;50.880;5.502;2022-08-19T04:33:58;15.40;99.90
13982;DHT22;7065;50.880;5.502;2022-08-19T04:36:26;15.50;99.90
13982;DHT22;7065;50.880;5.502;2022-08-19T04:38:57;15.50;99.90
13982;DHT22;7065;50.880;5.502;2022-08-19T04:41:24;15.50;99.90
13982;DHT22;7065;50.880;5.502;2022-08-19T04:44:09;15.50;99.90
13982;DHT22;7065;50.880;5.502;2022-08-19T04:46:34;15.50;99.90
13982;DHT22;7065;50.880;5.502;2022-08-19T04:49:02;15.50;99.90
13982;DHT22;7065;50.880;5.502;2022-08-19T04:51:28;15.50;99.90
13982;DHT22;7065;50.880;5.502;2022-08-19T04:53:56;15.40;99.90
13982;DHT22;7065;50.880;5.502;2022-08-19T04:56:22;15.40;99.90
13982;DHT22;7065;50.880;5.502;2022-08-19T04:58:51;15.40;99.90
13982;DHT22;7065;50.880;5.502;2022-08-19T05:01:22;15.40;99.90
13982;DHT22;7065;50.880;5.502;2022-08-19T05:03:48;15.40;99.90
13982;DHT22;7065;50.880;5.502;2022-08-19T05:06:16;15.40;99.90
13982;DHT22;7065;50.880;5.502;2022-08-19T05:08:43;15.40;99.90
13982;DHT22;7065;50.880;5.502;2022-08-19T05:11:10;15.40;99.90
13982;DHT22;7065;50.880;5.502;2022-08-19T05:13:36;15.50;99.90
13982;DHT22;7065;50.880;5.502;2022-08-19T05:16:02;15.50;99.90
13982;DHT22;7065;50.880;5.502;2022-08-19T05:18:28;15.50;99.90
13982;DHT22;7065;50.880;5.502;2022-08-19T05:21:16;15.60;99.90
13982;DHT22;7065;50.880;5.502;2022-08-19T05:24:01;15.60;99.90
13982;DHT22;7065;50.880;5.502;2022-08-19T05:26:27;15.60;99.90
13982;DHT22;7065;50.880;5.502;2022-08-19T05:28:53;15.60;99.90
13982;DHT22;7065;50.880;5.502;2022-08-19T05:31:19;15.70;99.90
13982;DHT22;7065;50.880;5.502;2022-08-19T05:33:46;15.70;99.90
13982;DHT22;7065;50.880;5.502;2022-08-19T05:36:11;15.70;99.90
13982;DHT22;7065;50.880;5.502;2022-08-19T05:38:38;15.70;99.90
13982;DHT22;7065;50.880;5.502;2022-08-19T05:41:11;15.70;99.90
13982;DHT22;7065;50.880;5.502;2022-08-19T05:43:38;15.80;99.90
13982;DHT22;7065;50.880;5.502;2022-08-19T05:46:05;15.80;99.90
13982;DHT22;7065;50.880;5.502;2022-08-19T05:48:32;15.90;99.90
13982;DHT22;7065;50.880;5.502;2022-08-19T05:51:02;16.00;99.90
13982;DHT22;7065;50.880;5.502;2022-08-19T05:53:28;16.10;99.90
13982;DHT22;7065;50.880;5.502;2022-08-19T05:55:54;16.10;99.90
13982;DHT22;7065;50.880;5.502;2022-08-19T05:58:20;16.20;99.90
13982;DHT22;7065;50.880;5.502;2022-08-19T06:00:45;16.30;99.90
13982;DHT22;7065;50.880;5.502;2022-08-19T06:03:11;16.50;99.90
13982;DHT22;7065;50.880;5.502;2022-08-19T06:05:37;16.50;99.90
13982;DHT22;7065;50.880;5.502;2022-08-19T06:08:03;16.60;99.90
13982;DHT22;7065;50.880;5.502;2022-08-19T06:10:30;16.60;99.90
13982;DHT22;7065;50.880;5.502;2022-08-19T06:12:55;16.70;99.90
13982;DHT22;7065;50.880;5.502;2022-08-19T06:15:22;16.80;99.90
13982;DHT22;7065;50.880;5.502;2022-08-19T06:17:51;16.80;99.90
13982;DHT22;7065;50.880;5.502;2022-08-19T06:20:16;16.90;99.90
13982;DHT22;7065;50.880;5.502;2022-08-19T06:22:46;16.90;99.90
13982;DHT22;7065;50.880;5.502;2022-08-19T06:25:13;16.90;99.90
13982;DHT22;7065;50.880;5.502;2022-08-19T06:27:40;17.00;99.90
13982;DHT22;7065;50.880;5.502;2022-08-19T06:30:06;16.90;99.90
13982;DHT22;7065;50.880;5.502;2022-08-19T06:32:32;16.90;99.90
13982;DHT22;7065;50.880;5.502;2022-08-19T06:34:58;17.00;99.90
13982;DHT22;7065;50.880;5.502;2022-08-19T06:37:24;16.90;99.90
13982;DHT22;7065;50.880;5.502;2022-08-19T06:39:50;16.90;99.90
13982;DHT22;7065;50.880;5.502;2022-08-19T06:42:16;16.90;99.90
13982;DHT22;7065;50.880;5.502;2022-08-19T06:44:45;16.90;99.90
13982;DHT22;7065;50.880;5.502;2022-08-19T06:47:14;16.90;99.90
13982;DHT22;7065;50.880;5.502;2022-08-19T06:49:41;17.00;99.90
13982;DHT22;7065;50.880;5.502;2022-08-19T06:52:08;16.90;99.90
13982;DHT22;7065;50.880;5.502;2022-08-19T06:54:37;17.00;99.90
13982;DHT22;7065;50.880;5.502;2022-08-19T06:57:02;17.00;99.90
13982;DHT22;7065;50.880;5.502;2022-08-19T06:59:30;17.10;99.90
13982;DHT22;7065;50.880;5.502;2022-08-19T07:01:59;17.10;99.90
13982;DHT22;7065;50.880;5.502;2022-08-19T07:04:28;17.10;99.90
13982;DHT22;7065;50.880;5.502;2022-08-19T07:07:01;17.10;99.90
13982;DHT22;7065;50.880;5.502;2022-08-19T07:09:28;17.20;99.90
13982;DHT22;7065;50.880;5.502;2022-08-19T07:11:55;17.30;99.90
13982;DHT22;7065;50.880;5.502;2022-08-19T07:14:25;17.30;99.90
13982;DHT22;7065;50.880;5.502;2022-08-19T07:16:54;17.40;99.90
13982;DHT22;7065;50.880;5.502;2022-08-19T07:19:21;17.40;99.90
13982;DHT22;7065;50.880;5.502;2022-08-19T07:21:50;17.50;99.90
13982;DHT22;7065;50.880;5.502;2022-08-19T07:24:19;17.60;99.90
13982;DHT22;7065;50.880;5.502;2022-08-19T07:26:45;17.60;99.90
13982;DHT22;7065;50.880;5.502;2022-08-19T07:29:12;17.80;99.90
13982;DHT22;7065;50.880;5.502;2022-08-19T07:31:38;17.80;99.90
13982;DHT22;7065;50.880;5.502;2022-08-19T07:34:08;17.90;99.90
13982;DHT22;7065;50.880;5.502;2022-08-19T07:36:36;18.10;99.90
13982;DHT22;7065;50.880;5.502;2022-08-19T07:39:07;18.20;99.90
13982;DHT22;7065;50.880;5.502;2022-08-19T07:41:35;18.30;99.90
13982;DHT22;7065;50.880;5.502;2022-08-19T07:44:03;18.40;99.90
13982;DHT22;7065;50.880;5.502;2022-08-19T07:46:31;18.50;99.90
13982;DHT22;7065;50.880;5.502;2022-08-19T07:48:57;18.60;99.90
13982;DHT22;7065;50.880;5.502;2022-08-19T07:51:23;18.60;99.90
13982;DHT22;7065;50.880;5.502;2022-08-19T07:53:50;18.70;99.90
13982;DHT22;7065;50.880;5.502;2022-08-19T07:56:17;18.60;99.90
13982;DHT22;7065;50.880;5.502;2022-08-19T07:58:45;18.70;99.90
13982;DHT22;7065;50.880;5.502;2022-08-19T08:01:17;18.80;99.90
13982;DHT22;7065;50.880;5.502;2022-08-19T08:03:44;18.90;99.90
13982;DHT22;7065;50.880;5.502;2022-08-19T08:06:28;19.00;99.90
13982;DHT22;7065;50.880;5.502;2022-08-19T08:09:14;19.10;99.90
13982;DHT22;7065;50.880;5.502;2022-08-19T08:11:59;19.10;99.90
13982;DHT22;7065;50.880;5.502;2022-08-19T08:14:31;19.20;99.90
13982;DHT22;7065;50.880;5.502;2022-08-19T08:16:58;19.20;99.90
13982;DHT22;7065;50.880;5.502;2022-08-19T08:19:25;19.30;99.90
13982;DHT22;7065;50.880;5.502;2022-08-19T08:21:56;19.40;99.90
13982;DHT22;7065;50.880;5.502;2022-08-19T08:24:23;19.60;99.90
13982;DHT22;7065;50.880;5.502;2022-08-19T08:26:49;19.60;99.90
13982;DHT22;7065;50.880;5.502;2022-08-19T08:29:15;19.60;99.90
13982;DHT22;7065;50.880;5.502;2022-08-19T08:31:42;19.60;99.90
13982;DHT22;7065;50.880;5.502;2022-08-19T08:34:10;19.60;99.90
13982;DHT22;7065;50.880;5.502;2022-08-19T08:36:37;19.70;99.90
13982;DHT22;7065;50.880;5.502;2022-08-19T08:39:17;19.80;99.90
13982;DHT22;7065;50.880;5.502;2022-08-19T08:42:10;20.00;99.90
13982;DHT22;7065;50.880;5.502;2022-08-19T08:47:10;20.00;99.90
13982;DHT22;7065;50.880;5.502;2022-08-19T08:49:58;20.10;99.90
13982;DHT22;7065;50.880;5.502;2022-08-19T08:52:31;20.30;99.90
13982;DHT22;7065;50.880;5.502;2022-08-19T08:55:15;20.40;99.90
13982;DHT22;7065;50.880;5.502;2022-08-19T09:00:29;20.50;99.90
13982;DHT22;7065;50.880;5.502;2022-08-19T09:02:56;20.50;99.90
13982;DHT22;7065;50.880;5.502;2022-08-19T09:05:30;20.50;99.90
13982;DHT22;7065;50.880;5.502;2022-08-19T09:08:07;20.50;99.90
13982;DHT22;7065;50.880;5.502;2022-08-19T09:10:39;20.50;99.90
13982;DHT22;7065;50.880;5.502;2022-08-19T09:16:03;20.70;99.90
13982;DHT22;7065;50.880;5.502;2022-08-19T09:18:42;20.70;99.90
13982;DHT22;7065;50.880;5.502;2022-08-19T09:21:08;20.80;99.90
13982;DHT22;7065;50.880;5.502;2022-08-19T09:23:36;20.70;99.90
13982;DHT22;7065;50.880;5.502;2022-08-19T09:26:11;20.60;99.90
13982;DHT22;7065;50.880;5.502;2022-08-19T09:28:39;20.60;99.90
13982;DHT22;7065;50.880;5.502;2022-08-19T09:31:12;20.60;99.90
13982;DHT22;7065;50.880;5.502;2022-08-19T09:33:38;20.50;99.90
13982;DHT22;7065;50.880;5.502;2022-08-19T09:36:09;20.50;99.90
13982;DHT22;7065;50.880;5.502;2022-08-19T09:38:36;20.50;99.90
13982;DHT22;7065;50.880;5.502;2022-08-19T09:41:08;20.50;99.90
13982;DHT22;7065;50.880;5.502;2022-08-19T09:43:34;20.60;99.90
13982;DHT22;7065;50.880;5.502;2022-08-19T09:46:03;20.70;99.90
13982;DHT22;7065;50.880;5.502;2022-08-19T09:48:31;20.90;99.90
13982;DHT22;7065;50.880;5.502;2022-08-19T09:51:03;21.20;99.90
13982;DHT22;7065;50.880;5.502;2022-08-19T09:53:28;21.40;99.90
13982;DHT22;7065;50.880;5.502;2022-08-19T09:55:57;21.60;99.90
13982;DHT22;7065;50.880;5.502;2022-08-19T09:58:23;21.70;99.90
13982;DHT22;7065;50.880;5.502;2022-08-19T10:00:54;21.60;99.90
13982;DHT22;7065;50.880;5.502;2022-08-19T10:03:20;21.50;99.90
13982;DHT22;7065;50.880;5.502;2022-08-19T10:05:46;21.50;99.90
13982;DHT22;7065;50.880;5.502;2022-08-19T10:08:27;21.60;99.90
13982;DHT22;7065;50.880;5.502;2022-08-19T10:10:53;21.90;99.90
13982;DHT22;7065;50.880;5.502;2022-08-19T10:13:22;22.10;99.90
13982;DHT22;7065;50.880;5.502;2022-08-19T10:15:51;22.40;99.90
13982;DHT22;7065;50.880;5.502;2022-08-19T10:18:20;22.40;99.90
13982;DHT22;7065;50.880;5.502;2022-08-19T10:20:47;22.40;99.90
13982;DHT22;7065;50.880;5.502;2022-08-19T10:23:14;22.40;99.90
13982;DHT22;7065;50.880;5.502;2022-08-19T10:25:40;22.40;99.90
13982;DHT22;7065;50.880;5.502;2022-08-19T10:28:07;22.30;99.90
13982;DHT22;7065;50.880;5.502;2022-08-19T10:30:35;22.20;99.90
13982;DHT22;7065;50.880;5.502;2022-08-19T10:33:00;22.10;99.90
13982;DHT22;7065;50.880;5.502;2022-08-19T10:35:26;22.10;99.90
13982;DHT22;7065;50.880;5.502;2022-08-19T10:37:53;22.20;99.90
13982;DHT22;7065;50.880;5.502;2022-08-19T10:40:19;22.30;99.90
13982;DHT22;7065;50.880;5.502;2022-08-19T10:42:45;22.30;99.90
13982;DHT22;7065;50.880;5.502;2022-08-19T10:45:11;22.30;99.90
13982;DHT22;7065;50.880;5.502;2022-08-19T10:47:36;22.30;99.90
13982;DHT22;7065;50.880;5.502;2022-08-19T10:50:03;22.40;99.90
13982;DHT22;7065;50.880;5.502;2022-08-19T10:52:50;22.60;99.90
13982;DHT22;7065;50.880;5.502;2022-08-19T10:55:20;22.80;99.90
13982;DHT22;7065;50.880;5.502;2022-08-19T10:58:14;23.00;99.90
13982;DHT22;7065;50.880;5.502;2022-08-19T11:00:40;23.00;99.90
13982;DHT22;7065;50.880;5.502;2022-08-19T11:03:06;23.00;99.90
13982;DHT22;7065;50.880;5.502;2022-08-19T11:05:32;23.00;99.90
13982;DHT22;7065;50.880;5.502;2022-08-19T11:07:58;23.10;99.90
13982;DHT22;7065;50.880;5.502;2022-08-19T11:10:23;23.10;99.90
13982;DHT22;7065;50.880;5.502;2022-08-19T11:12:49;23.20;99.90
13982;DHT22;7065;50.880;5.502;2022-08-19T11:15:19;23.20;99.90
13982;DHT22;7065;50.880;5.502;2022-08-19T11:17:45;23.40;99.90
13982;DHT22;7065;50.880;5.502;2022-08-19T11:20:13;23.60;99.90
13982;DHT22;7065;50.880;5.502;2022-08-19T11:22:40;23.70;99.90
13982;DHT22;7065;50.880;5.502;2022-08-19T11:25:07;23.90;99.90
13982;DHT22;7065;50.880;5.502;2022-08-19T11:27:33;24.10;99.90
13982;DHT22;7065;50.880;5.502;2022-08-19T11:29:59;24.20;99.90
13982;DHT22;7065;50.880;5.502;2022-08-19T11:32:26;24.20;99.90
13982;DHT22;7065;50.880;5.502;2022-08-19T11:34:52;24.30;99.90
13982;DHT22;7065;50.880;5.502;2022-08-19T11:37:18;24.20;99.90
13982;DHT22;7065;50.880;5.502;2022-08-19T11:39:43;24.30;99.90
13982;DHT22;7065;50.880;5.502;2022-08-19T11:42:10;24.30;99.90
13982;DHT22;7065;50.880;5.502;2022-08-19T11:44:54;24.40;99.90
13982;DHT22;7065;50.880;5.502;2022-08-19T11:47:20;24.40;99.90
13982;DHT22;7065;50.880;5.502;2022-08-19T11:49:46;24.60;99.90
13982;DHT22;7065;50.880;5.502;2022-08-19T11:52:12;24.60;99.90
13982;DHT22;7065;50.880;5.502;2022-08-19T11:54:38;24.70;99.90
13982;DHT22;7065;50.880;5.502;2022-08-19T11:57:04;24.80;99.90
13982;DHT22;7065;50.880;5.502;2022-08-19T11:59:30;24.80;99.90
13982;DHT22;7065;50.880;5.502;2022-08-19T12:01:56;24.80;99.90
13982;DHT22;7065;50.880;5.502;2022-08-19T12:04:22;24.80;99.90
13982;DHT22;7065;50.880;5.502;2022-08-19T12:06:48;24.80;99.90
13982;DHT22;7065;50.880;5.502;2022-08-19T12:09:16;24.80;99.90
13982;DHT22;7065;50.880;5.502;2022-08-19T12:11:43;24.70;99.90
13982;DHT22;7065;50.880;5.502;2022-08-19T12:14:11;24.70;99.90
13982;DHT22;7065;50.880;5.502;2022-08-19T12:16:37;24.70;99.90
13982;DHT22;7065;50.880;5.502;2022-08-19T12:19:04;24.90;99.90
13982;DHT22;7065;50.880;5.502;2022-08-19T12:21:31;25.10;99.90
13982;DHT22;7065;50.880;5.502;2022-08-19T12:23:59;25.10;99.90
13982;DHT22;7065;50.880;5.502;2022-08-19T12:26:27;25.40;99.90
13982;DHT22;7065;50.880;5.502;2022-08-19T12:28:53;25.20;99.90
13982;DHT22;7065;50.880;5.502;2022-08-19T12:31:20;25.20;99.90
13982;DHT22;7065;50.880;5.502;2022-08-19T12:33:46;25.30;99.90
13982;DHT22;7065;50.880;5.502;2022-08-19T12:36:14;25.20;99.90
13982;DHT22;7065;50.880;5.502;2022-08-19T12:38:41;25.40;99.90
13982;DHT22;7065;50.880;5.502;2022-08-19T12:41:10;25.50;99.90
13982;DHT22;7065;50.880;5.502;2022-08-19T12:43:37;25.60;99.90
13982;DHT22;7065;50.880;5.502;2022-08-19T12:46:07;25.80;99.90
13982;DHT22;7065;50.880;5.502;2022-08-19T12:48:33;26.00;99.90
13982;DHT22;7065;50.880;5.502;2022-08-19T12:50:59;26.10;99.90
13982;DHT22;7065;50.880;5.502;2022-08-19T12:53:25;26.30;99.90
13982;DHT22;7065;50.880;5.502;2022-08-19T12:55:58;26.30;99.90
13982;DHT22;7065;50.880;5.502;2022-08-19T12:58:25;26.30;99.90
13982;DHT22;7065;50.880;5.502;2022-08-19T13:00:52;26.20;99.90
13982;DHT22;7065;50.880;5.502;2022-08-19T13:03:17;26.00;99.90
13982;DHT22;7065;50.880;5.502;2022-08-19T13:05:43;25.90;99.90
13982;DHT22;7065;50.880;5.502;2022-08-19T13:08:09;25.60;99.90
13982;DHT22;7065;50.880;5.502;2022-08-19T13:10:36;25.40;99.90
13982;DHT22;7065;50.880;5.502;2022-08-19T13:13:07;25.20;99.90
13982;DHT22;7065;50.880;5.502;2022-08-19T13:15:37;24.90;99.90
13982;DHT22;7065;50.880;5.502;2022-08-19T13:18:05;24.70;99.90
13982;DHT22;7065;50.880;5.502;2022-08-19T13:20:31;24.60;99.90
13982;DHT22;7065;50.880;5.502;2022-08-19T13:22:57;24.50;99.90
13982;DHT22;7065;50.880;5.502;2022-08-19T13:25:23;24.50;99.90
13982;DHT22;7065;50.880;5.502;2022-08-19T13:27:49;24.50;99.90
13982;DHT22;7065;50.880;5.502;2022-08-19T13:30:17;24.50;99.90
13982;DHT22;7065;50.880;5.502;2022-08-19T13:33:01;24.60;99.90
13982;DHT22;7065;50.880;5.502;2022-08-19T13:35:40;24.60;99.90
13982;DHT22;7065;50.880;5.502;2022-08-19T13:38:07;24.60;99.90
13982;DHT22;7065;50.880;5.502;2022-08-19T13:40:33;24.60;99.90
13982;DHT22;7065;50.880;5.502;2022-08-19T13:42:59;24.70;99.90
13982;DHT22;7065;50.880;5.502;2022-08-19T13:45:27;24.70;99.90
13982;DHT22;7065;50.880;5.502;2022-08-19T13:47:55;24.80;99.90
13982;DHT22;7065;50.880;5.502;2022-08-19T13:50:25;24.80;99.90
13982;DHT22;7065;50.880;5.502;2022-08-19T13:52:53;24.80;99.90
13982;DHT22;7065;50.880;5.502;2022-08-19T13:55:19;24.90;99.90
13982;DHT22;7065;50.880;5.502;2022-08-19T13:57:45;24.90;99.90
13982;DHT22;7065;50.880;5.502;2022-08-19T14:00:16;24.90;99.90
13982;DHT22;7065;50.880;5.502;2022-08-19T14:02:44;25.00;99.90
13982;DHT22;7065;50.880;5.502;2022-08-19T14:05:12;25.20;99.90
13982;DHT22;7065;50.880;5.502;2022-08-19T14:07:38;25.40;99.90
13982;DHT22;7065;50.880;5.502;2022-08-19T14:10:07;25.40;99.90
13982;DHT22;7065;50.880;5.502;2022-08-19T14:12:33;25.50;99.90
13982;DHT22;7065;50.880;5.502;2022-08-19T14:14:59;25.70;99.90
13982;DHT22;7065;50.880;5.502;2022-08-19T14:17:25;25.90;99.90
13982;DHT22;7065;50.880;5.502;2022-08-19T14:20:02;26.00;99.90
13982;DHT22;7065;50.880;5.502;2022-08-19T14:22:33;26.20;99.90
13982;DHT22;7065;50.880;5.502;2022-08-19T14:24:59;26.50;99.90
13982;DHT22;7065;50.880;5.502;2022-08-19T14:27:25;26.60;99.90
13982;DHT22;7065;50.880;5.502;2022-08-19T14:29:54;26.60;99.90
13982;DHT22;7065;50.880;5.502;2022-08-19T14:32:20;26.50;99.90
13982;DHT22;7065;50.880;5.502;2022-08-19T14:34:47;26.50;99.90
13982;DHT22;7065;50.880;5.502;2022-08-19T14:37:14;26.40;99.90
13982;DHT22;7065;50.880;5.502;2022-08-19T14:39:41;26.40;99.90
13982;DHT22;7065;50.880;5.502;2022-08-19T14:42:08;26.50;99.90
13982;DHT22;7065;50.880;5.502;2022-08-19T14:44:35;26.50;99.90
13982;DHT22;7065;50.880;5.502;2022-08-19T14:47:01;26.50;99.90
13982;DHT22;7065;50.880;5.502;2022-08-19T14:49:27;26.60;99.90
13982;DHT22;7065;50.880;5.502;2022-08-19T14:51:53;26.70;99.90
13982;DHT22;7065;50.880;5.502;2022-08-19T14:54:20;26.70;99.90
13982;DHT22;7065;50.880;5.502;2022-08-19T14:56:46;26.70;99.90
13982;DHT22;7065;50.880;5.502;2022-08-19T14:59:12;26.50;99.90
13982;DHT22;7065;50.880;5.502;2022-08-19T15:01:38;26.40;99.90
13982;DHT22;7065;50.880;5.502;2022-08-19T15:04:04;26.30;99.90
13982;DHT22;7065;50.880;5.502;2022-08-19T15:06:30;26.30;99.90
13982;DHT22;7065;50.880;5.502;2022-08-19T15:08:58;26.20;99.90
13982;DHT22;7065;50.880;5.502;2022-08-19T15:11:25;26.10;99.90
13982;DHT22;7065;50.880;5.502;2022-08-19T15:13:53;26.10;99.90
13982;DHT22;7065;50.880;5.502;2022-08-19T15:16:21;26.20;99.90
13982;DHT22;7065;50.880;5.502;2022-08-19T15:18:50;26.10;99.90
13982;DHT22;7065;50.880;5.502;2022-08-19T15:21:17;26.10;99.90
13982;DHT22;7065;50.880;5.502;2022-08-19T15:23:47;26.00;99.90
13982;DHT22;7065;50.880;5.502;2022-08-19T15:26:15;26.00;99.90
13982;DHT22;7065;50.880;5.502;2022-08-19T15:28:43;25.90;99.90
13982;DHT22;7065;50.880;5.502;2022-08-19T15:31:09;26.00;99.90
13982;DHT22;7065;50.880;5.502;2022-08-19T15:33:36;26.00;99.90
13982;DHT22;7065;50.880;5.502;2022-08-19T15:36:06;26.00;99.90
13982;DHT22;7065;50.880;5.502;2022-08-19T15:38:33;26.00;99.90
13982;DHT22;7065;50.880;5.502;2022-08-19T15:41:01;26.00;99.90
13982;DHT22;7065;50.880;5.502;2022-08-19T15:43:47;25.90;99.90
13982;DHT22;7065;50.880;5.502;2022-08-19T15:46:17;25.80;99.90
13982;DHT22;7065;50.880;5.502;2022-08-19T15:48:44;25.70;99.90
13982;DHT22;7065;50.880;5.502;2022-08-19T15:51:10;25.50;99.90
13982;DHT22;7065;50.880;5.502;2022-08-19T15:53:36;25.40;99.90
13982;DHT22;7065;50.880;5.502;2022-08-19T15:56:02;25.40;99.90
13982;DHT22;7065;50.880;5.502;2022-08-19T15:58:27;25.40;99.90
13982;DHT22;7065;50.880;5.502;2022-08-19T16:01:12;25.30;99.90
13982;DHT22;7065;50.880;5.502;2022-08-19T16:03:58;25.30;99.90